Toowoomba, Queensland

2:09 PM EST on August 22, 2014 (GMT +1000)
Parkwood Mt Lofty | Change Station
CLOSE
Current Station
Personal Weather Station
Location: Toowoomba, QUEENSLAND
Elevation: 2205 ft
Nearby Weather Stations

Elev 2205 ft 27.55 °S, 151.98 °E | Updated 19 seconds ago

Light Rain
Light Rain
52.4 °F
Feels Like 52.4 °F
N
2.3
Wind Variable Wind from East
Gusts 9.0 mph

Today
High -- | Low -- °F
--% Chance of Precip.
Yesterday
High -- | Low -- °F
Precip. -- in
6:16 AM 5:34 PM
Waning Crescent, 10% visible
Pressure 30.24 in
Visibility 6.2 miles
Clouds Scattered Clouds 1900 ft
Mostly Cloudy 2800 ft
Overcast 3600 ft
Dew Point 51 °F
Humidity 97%
Rainfall 0.07 in
Snow Depth Not available.
UV 2 out of 12
Pollen Not available.
Air Quality Not available.
Flu Activity Not available.
METAR YBOK 220300Z 07013KT 9999 -RA SCT019 BKN028 OVC036 15/11 Q1024 INTER 0300/0530 5000 SHRA BKN018 OVC030

More Conditions Fewer Conditions

Pressure 30.24 in
Visibility 6.2 miles
Clouds Scattered Clouds 1900 ft
Mostly Cloudy 2800 ft
Overcast 3600 ft
Dew Point 51 °F
Humidity 97%
Rainfall 0.07 in
Snow Depth Not available.
UV 2 out of 12
Pollen Not available.
Air Quality Not available.
Flu Activity Not available.
METAR YBOK 220300Z 07013KT 9999 -RA SCT019 BKN028 OVC036 15/11 Q1024 INTER 0300/0530 5000 SHRA BKN018 OVC030

More Conditions Fewer Conditions

10-Day Weather Forecast

Almanac

Astronomy

Aug. 22, 2014 Rise Set
Actual Time 6:16 AM EST 5:34 PM EST
Civil Twilight 5:53 AM EST 5:57 PM EST
Nautical Twilight 5:25 AM EST 6:25 PM EST
Astronomical Twilight 4:58 AM EST 6:52 PM EST
Moon 3:39 AM EST 2:46 PM EST
Length of Visible Light 12h 04m
Length of Day
11h 17m
Tomorrow will be 1m 27s longer.
Waning Crescent, 10% of the Moon is Illuminated
Today
Waning Crescent
Aug 25
New
Sep 2
First Quarter
Sep 8
Full
Sep 15
Last Quarter

Yesterday's Extremes

Country Highs Country Lows

Community

WunderPhotos

Upload Photos

1,746,125 photos uploaded!

Nearby

Snow Depth

Not available.

Earthquake Activity

City Distance Mag. Time & Date
No recent earthquake activity has been reported nearby.
Minimum magnitude displayed is 2.5.

Coastal Water Temperatures

Place Temperature
No Stations Reporting

Nearby Weather Stations